KLFI

Langley AFB Airport

Hampton, Virginia, USA
METAR KLFI 230856Z AUTO 22009KT 10SM CLR 11/04 A3015 RMK AO2 SLP217 T01060041 57012 $
Observed Flight Rules
Oct-23 @ 08:56 UTC (56 minutes ago) Visual Flight Rules
Wind Visibility Clouds
220° at 9 knots 10 miles
  • Clear skies
Temperatures Readings
Current 11°C / 52°F
Dewpoint 4°C / 39°F
Humidity 62%
Altimeter 30.15" Hg
Pressure 1021.7 hPa
Elevation 3
METAR KLFI 230856Z AUTO 22009KT 10SM CLR 11/04 A3015 RMK AO2 SLP217 T01060041 57012 $
Observed Flight Rules
Oct-23 @ 08:56 UTC
(56 minutes ago)
VFR
Wind Visibility
220° at 9 knots 10 miles
Clouds
  • Clear skies
Temperature Dewpoint
11°C / 52°F 4°C / 39°F
Humidity Altimeter Pressure
62% 30.15" Hg 1021.7 hPa